Time;durP1;ratioP1;P1;durP2;ratioP2;P2;SDS_P1;SDS_P2;PMS_P1;PMS_P2;Temp;Humidity;BMP_temperature;BMP_pressure;BME280_temperature;BME280_humidity;BME280_pressure;Samples;Min_cycle;Max_cycle;Signal;HPM_P1;HPM_P2
2023/07/15 00:01:59;;;;;;;9.70;4.13;;;16.90;99.90;;;16.39;100.00;100315.56;3973542;29;20027;-76
2023/07/15 00:04:01;;;;;;;9.20;3.83;;;16.90;99.90;;;16.37;100.00;100314.94;3995202;29;20460;-76
2023/07/15 00:06:02;;;;;;;11.43;3.83;;;16.90;99.90;;;16.41;100.00;100310.84;3971185;29;20083;-75
2023/07/15 00:08:05;;;;;;;9.38;3.60;;;17.00;99.90;;;16.39;100.00;100310.25;3986712;29;20399;-75
2023/07/15 00:10:07;;;;;;;9.48;3.83;;;17.00;99.90;;;16.48;100.00;100317.00;3976640;29;20061;-75
2023/07/15 00:12:09;;;;;;;10.82;3.38;;;17.00;99.90;;;16.53;100.00;100319.84;3985821;29;20057;-76
2023/07/15 00:14:18;;;;;;;14.52;4.47;;;17.00;99.90;;;16.50;100.00;100308.78;3972661;29;20024;-76
2023/07/15 00:16:20;;;;;;;10.77;4.43;;;17.10;99.90;;;16.55;100.00;100315.16;3992698;29;20038;-76
2023/07/15 00:18:21;;;;;;;15.15;4.32;;;17.10;99.90;;;16.61;100.00;100310.06;3983711;29;20030;-75
2023/07/15 00:20:22;;;;;;;9.95;3.67;;;17.20;99.90;;;16.63;100.00;100318.66;3990096;29;20042;-75
2023/07/15 00:22:23;;;;;;;16.02;4.80;;;17.20;99.90;;;16.64;100.00;100314.94;3995034;29;20430;-76
2023/07/15 00:24:24;;;;;;;11.55;4.03;;;17.20;99.90;;;16.65;100.00;100317.44;3992619;29;20023;-75
2023/07/15 00:26:29;;;;;;;11.57;4.13;;;17.20;99.90;;;16.66;100.00;100312.94;3995352;29;20398;-76
2023/07/15 00:28:30;;;;;;;9.07;3.40;;;17.20;99.90;;;16.63;100.00;100305.34;3995176;29;20042;-75
2023/07/15 00:30:31;;;;;;;18.10;5.40;;;17.20;99.90;;;16.71;100.00;100313.13;3977083;29;20533;-76
2023/07/15 00:32:32;;;;;;;13.32;4.30;;;17.30;99.90;;;16.71;100.00;100316.59;3993078;29;20069;-76
2023/07/15 00:34:33;;;;;;;12.25;3.22;;;17.30;99.90;;;16.76;100.00;100310.66;3996147;29;20038;-76
2023/07/15 00:36:35;;;;;;;12.43;3.97;;;17.20;99.90;;;16.75;100.00;100315.19;3997089;29;20030;-76
2023/07/15 00:38:36;;;;;;;15.27;4.40;;;17.30;99.90;;;16.76;100.00;100318.63;3992427;29;20027;-76
2023/07/15 00:40:47;;;;;;;11.13;2.75;;;17.30;99.90;;;16.73;100.00;100321.72;3997674;29;20033;-76
2023/07/15 00:42:52;;;;;;;8.45;3.65;;;17.20;99.90;;;16.63;100.00;100329.31;3966857;29;20023;-76
2023/07/15 00:44:53;;;;;;;15.15;3.75;;;17.20;99.90;;;16.50;100.00;100325.59;3984113;29;20114;-76
2023/07/15 00:48:05;;;;;;;14.43;4.22;;;17.10;99.90;;;16.35;100.00;100316.97;3977694;29;20519;-76
2023/07/15 00:50:07;;;;;;;15.23;3.92;;;17.00;99.90;;;16.30;100.00;100311.47;3935688;30;20040;-76
2023/07/15 00:52:14;;;;;;;16.13;3.50;;;16.90;99.90;;;16.27;100.00;100319.03;3961988;30;20130;-76
2023/07/15 00:54:15;;;;;;;11.93;3.90;;;16.80;99.90;;;16.23;100.00;100323.94;3970956;29;20106;-76
2023/07/15 00:56:17;;;;;;;11.23;3.40;;;16.80;99.90;;;16.17;100.00;100306.09;3975045;29;20572;-76
2023/07/15 00:58:18;;;;;;;12.57;3.15;;;16.70;99.90;;;16.17;100.00;100308.78;3974372;29;20080;-75
2023/07/15 01:00:19;;;;;;;11.77;3.25;;;16.70;99.90;;;16.13;100.00;100312.84;3980760;29;20457;-75
2023/07/15 01:02:20;;;;;;;12.82;3.95;;;16.70;99.90;;;16.11;100.00;100304.25;3997646;29;20045;-76
2023/07/15 01:04:21;;;;;;;11.15;2.95;;;16.60;99.90;;;16.10;100.00;100307.13;3959673;30;20035;-76
2023/07/15 01:06:23;;;;;;;12.75;2.92;;;16.60;99.90;;;16.05;100.00;100297.91;3997530;29;20046;-76
2023/07/15 01:08:24;;;;;;;10.15;3.38;;;16.60;99.90;;;16.03;100.00;100296.47;3989883;29;20027;-76
2023/07/15 01:10:25;;;;;;;12.20;3.53;;;16.60;99.90;;;16.05;100.00;100303.22;3996463;29;20094;-76
2023/07/15 01:12:26;;;;;;;11.48;3.30;;;16.60;99.90;;;16.01;100.00;100287.84;3991576;29;20038;-76
2023/07/15 01:14:30;;;;;;;13.82;3.58;;;16.60;99.90;;;16.04;100.00;100292.78;3997479;29;20038;-76
2023/07/15 01:16:34;;;;;;;14.13;3.17;;;16.60;99.90;;;16.07;100.00;100287.03;3981411;29;20506;-75
2023/07/15 01:18:35;;;;;;;;;;;16.60;99.90;;;16.05;100.00;100278.44;3972260;29;20035;-75
2023/07/15 01:20:36;;;;;;;15.05;3.22;;;16.60;99.90;;;16.09;100.00;100279.69;3981245;29;19916;-76
2023/07/15 01:22:38;;;;;;;10.85;3.20;;;16.60;99.90;;;16.11;100.00;100287.47;3978927;29;20057;-76
2023/07/15 01:24:39;;;;;;;13.13;3.10;;;16.60;99.90;;;16.09;100.00;100285.03;3997184;29;20051;-76
2023/07/15 01:26:40;;;;;;;13.57;4.32;;;16.60;99.90;;;16.14;100.00;100287.88;3989157;29;20038;-76
2023/07/15 01:28:41;;;;;;;13.55;3.72;;;16.70;99.90;;;16.21;100.00;100277.25;3997359;29;20034;-76
2023/07/15 01:30:41;;;;;;;18.45;4.03;;;16.80;99.90;;;16.30;100.00;100274.19;3997152;29;20035;-76
2023/07/15 01:32:42;;;;;;;10.70;2.50;;;16.80;99.90;;;16.36;100.00;100277.88;3994483;29;20078;-75
2023/07/15 01:34:43;;;;;;;12.00;2.60;;;16.90;99.90;;;16.39;100.00;100270.31;3996940;29;20038;-76
2023/07/15 01:36:44;;;;;;;11.13;3.97;;;16.90;99.90;;;16.44;100.00;100270.50;3978461;29;20039;-76
2023/07/15 01:38:45;;;;;;;7.47;3.03;;;17.00;99.90;;;16.47;100.00;100262.09;3991520;29;20034;-76
2023/07/15 01:40:46;;;;;;;10.20;2.30;;;17.00;99.90;;;16.47;100.00;100262.09;3996923;29;20541;-76
2023/07/15 01:42:46;;;;;;;10.43;3.20;;;17.00;99.90;;;16.45;100.00;100261.50;3985534;29;20038;-76
2023/07/15 01:44:47;;;;;;;13.32;2.85;;;17.00;99.90;;;16.43;100.00;100260.03;3989958;29;20463;-76
2023/07/15 01:46:49;;;;;;;10.90;2.88;;;17.00;99.90;;;16.44;100.00;100265.19;3996250;29;20034;-76
2023/07/15 01:48:50;;;;;;;13.27;2.90;;;16.90;99.90;;;16.42;100.00;100256.59;3993012;29;20026;-76
2023/07/15 01:50:51;;;;;;;5.85;2.13;;;17.00;99.90;;;16.41;100.00;100257.59;3980944;29;20038;-75
2023/07/15 01:52:52;;;;;;;9.10;3.28;;;16.90;99.90;;;16.39;100.00;100258.84;3996757;29;20041;-76
2023/07/15 01:54:53;;;;;;;14.30;3.75;;;16.90;99.90;;;16.23;100.00;100238.75;3994415;29;20030;-75
2023/07/15 01:56:54;;;;;;;10.32;2.33;;;16.80;99.90;;;16.25;100.00;100252.66;3978027;29;20080;-76
2023/07/15 01:58:55;;;;;;;9.48;2.50;;;16.80;99.90;;;16.18;100.00;100240.41;3965541;30;20086;-76
2023/07/15 02:00:56;;;;;;;10.93;2.42;;;16.70;99.90;;;16.10;100.00;100244.06;3987578;29;20034;-76
2023/07/15 02:02:56;;;;;;;11.43;2.78;;;16.70;99.90;;;16.06;100.00;100242.84;3975415;29;20035;-76
2023/07/15 02:04:57;;;;;;;13.18;3.30;;;16.60;99.90;;;16.00;100.00;100239.16;3977178;29;20042;-76
2023/07/15 02:06:58;;;;;;;12.73;2.70;;;16.50;99.90;;;15.96;100.00;100242.44;3993780;29;20038;-76
2023/07/15 02:08:59;;;;;;;14.70;3.40;;;16.50;99.90;;;15.94;100.00;100233.84;3987862;29;20022;-76
2023/07/15 02:11:00;;;;;;;17.20;4.25;;;16.50;99.90;;;15.91;100.00;100237.72;3996721;29;20037;-76
2023/07/15 02:13:01;;;;;;;12.55;3.25;;;16.40;99.90;;;15.87;100.00;100233.00;3992357;29;20019;-75
2023/07/15 02:15:04;;;;;;;9.38;3.22;;;16.40;99.90;;;15.82;100.00;100222.97;3991498;29;20042;-76
2023/07/15 02:17:05;;;;;;;14.63;3.30;;;16.40;99.90;;;15.83;100.00;100226.47;3980196;29;20031;-76
2023/07/15 02:19:06;;;;;;;10.85;3.17;;;16.40;99.90;;;15.79;100.00;100214.59;3977687;29;20119;-76
2023/07/15 02:21:07;;;;;;;10.70;3.00;;;16.30;99.90;;;15.78;100.00;100212.94;3996495;29;20023;-76
2023/07/15 02:23:11;;;;;;;10.38;2.60;;;16.40;99.90;;;15.78;100.00;100218.25;3994955;29;20057;-76
2023/07/15 02:25:12;;;;;;;16.27;4.63;;;16.30;99.90;;;15.72;100.00;100214.56;3996332;29;20048;-76
2023/07/15 02:27:12;;;;;;;15.77;3.47;;;16.30;99.90;;;15.75;100.00;100210.69;3980219;29;20035;-76
2023/07/15 02:29:13;;;;;;;12.07;3.13;;;16.30;99.90;;;15.72;100.00;100208.41;3996390;29;20047;-76
2023/07/15 02:31:14;;;;;;;15.18;3.25;;;16.30;99.90;;;15.72;100.00;100211.09;3996506;29;20030;-76
2023/07/15 02:33:15;;;;;;;10.38;2.65;;;16.30;99.90;;;15.67;100.00;100209.03;3974052;29;20035;-76
2023/07/15 02:35:16;;;;;;;13.98;3.58;;;16.20;99.90;;;15.64;100.00;100205.97;4010369;29;20034;-76
2023/07/15 02:37:17;;;;;;;15.20;4.05;;;16.20;99.90;;;15.65;100.00;100211.06;3996519;29;20026;-76
2023/07/15 02:39:18;;;;;;;14.13;2.90;;;16.20;99.90;;;15.61;100.00;100199.22;3982607;29;20042;-76
2023/07/15 02:41:19;;;;;;;14.85;3.38;;;16.10;99.90;;;15.61;100.00;100198.38;3988362;29;20083;-76
2023/07/15 02:43:20;;;;;;;16.58;3.50;;;16.20;99.90;;;15.60;100.00;100204.72;3992256;29;20039;-76
2023/07/15 02:45:21;;;;;;;12.20;2.97;;;16.20;99.90;;;15.57;100.00;100199.81;3992513;29;20085;-76
2023/07/15 02:47:21;;;;;;;9.85;3.05;;;16.10;99.90;;;15.55;100.00;100194.69;3979714;29;20031;-75
2023/07/15 02:49:22;;;;;;;12.50;3.83;;;16.10;99.90;;;15.57;100.00;100200.63;3975257;29;20030;-75
2023/07/15 02:51:24;;;;;;;16.17;4.32;;;16.10;99.90;;;15.57;100.00;100199.81;3972963;29;20480;-75
2023/07/15 02:53:26;;;;;;;10.75;3.85;;;16.10;99.90;;;15.58;100.00;100190.81;3996047;29;20026;-76
2023/07/15 02:55:26;;;;;;;11.60;2.97;;;16.10;99.90;;;15.61;100.00;100198.38;3979922;29;20070;-76
2023/07/15 02:57:28;;;;;;;14.02;2.70;;;16.10;99.90;;;15.61;100.00;100195.72;3986978;29;20042;-76
2023/07/15 02:59:29;;;;;;;14.88;3.78;;;16.20;99.90;;;15.68;100.00;100191.25;3995736;29;20091;-76
2023/07/15 03:01:30;;;;;;;12.68;3.75;;;16.20;99.90;;;15.70;100.00;100189.19;3993444;29;20453;-76
2023/07/15 03:03:31;;;;;;;13.68;3.97;;;16.20;99.90;;;15.69;100.00;100182.22;3995665;29;20044;-76
2023/07/15 03:05:32;;;;;;;17.05;4.03;;;16.30;99.90;;;15.69;100.00;100171.59;3979747;29;20027;-76
2023/07/15 03:07:34;;;;;;;15.23;3.25;;;16.30;99.90;;;15.69;100.00;100176.91;4003481;29;20037;-76
2023/07/15 03:09:35;;;;;;;17.83;3.25;;;16.30;99.90;;;15.70;100.00;100173.25;3964594;30;20044;-76
2023/07/15 03:11:35;;;;;;;17.90;4.03;;;16.30;99.90;;;15.70;100.00;100168.75;3991757;29;20031;-76
2023/07/15 03:13:36;;;;;;;14.00;3.03;;;16.20;99.90;;;15.60;100.00;100160.34;3975736;29;20515;-76
2023/07/15 03:15:39;;;;;;;17.25;3.70;;;16.20;99.90;;;15.66;100.00;100161.38;3986317;29;20034;-76
2023/07/15 03:17:40;;;;;;;15.10;3.80;;;16.20;99.90;;;15.66;100.00;100167.50;3994688;29;20534;-76
2023/07/15 03:19:41;;;;;;;10.68;4.40;;;16.20;99.90;;;15.65;100.00;100173.03;3980455;29;20077;-76
2023/07/15 03:21:42;;;;;;;16.02;4.60;;;16.20;99.90;;;15.63;100.00;100167.09;3964820;29;20048;-76
2023/07/15 03:23:43;;;;;;;13.05;3.58;;;16.20;99.90;;;15.68;100.00;100165.47;3995745;29;20664;-76
2023/07/15 03:25:44;;;;;;;12.13;3.42;;;16.30;99.90;;;15.74;100.00;100162.00;3986447;29;20031;-76
2023/07/15 03:27:45;;;;;;;8.73;3.65;;;16.30;99.90;;;15.76;100.00;100159.13;3977014;29;20030;-76
2023/07/15 03:29:49;;;;;;;19.00;3.47;;;16.30;99.90;;;15.74;100.00;100162.00;4009713;29;20038;-76
2023/07/15 03:31:49;;;;;;;13.45;2.90;;;16.30;99.90;;;15.71;100.00;100161.59;3991783;29;20026;-76
2023/07/15 03:33:51;;;;;;;13.95;3.33;;;16.30;99.90;;;15.69;100.00;100152.97;3974416;29;20185;-76
2023/07/15 03:35:52;;;;;;;12.75;3.67;;;16.30;99.90;;;15.68;100.00;100154.81;3995636;29;20109;-76
2023/07/15 03:37:53;;;;;;;11.48;3.28;;;16.30;99.90;;;15.67;100.00;100157.69;3994472;29;20063;-76
2023/07/15 03:39:54;;;;;;;11.02;3.13;;;16.20;99.90;;;15.61;100.00;100154.00;3987672;29;20486;-76
2023/07/15 03:41:55;;;;;;;11.43;2.88;;;16.20;99.90;;;15.60;100.00;100152.38;3995670;29;20030;-76
2023/07/15 03:43:55;;;;;;;14.48;3.83;;;16.20;99.90;;;15.59;100.00;100152.59;3986203;29;20045;-76
2023/07/15 03:45:57;;;;;;;19.48;3.38;;;16.20;99.90;;;15.56;100.00;100151.13;3995598;29;20035;-76
2023/07/15 03:47:58;;;;;;;15.50;3.00;;;16.20;99.90;;;15.54;100.00;100147.84;3995576;29;20121;-76
2023/07/15 03:50:00;;;;;;;22.33;4.20;;;16.10;99.90;;;15.53;100.00;100146.22;3991398;29;20030;-76
2023/07/15 03:52:01;;;;;;;16.05;3.22;;;16.10;99.90;;;15.53;100.00;100145.41;3995234;29;20084;-76
2023/07/15 03:54:02;;;;;;;15.15;3.85;;;16.20;99.90;;;15.53;100.00;100150.72;3975410;29;20043;-76
2023/07/15 03:56:04;;;;;;;12.25;3.20;;;16.10;99.90;;;15.52;100.00;100149.91;3991606;29;20041;-76
2023/07/15 03:58:04;;;;;;;16.17;3.97;;;16.10;99.90;;;15.49;100.00;100152.97;3979046;29;20030;-76
2023/07/15 04:00:13;;;;;;;9.98;3.33;;;16.10;99.90;;;15.49;100.00;100145.00;3991390;29;20491;-76
2023/07/15 04:02:14;;;;;;;14.70;3.85;;;16.10;99.90;;;15.48;100.00;100149.50;3991707;29;20026;-76
2023/07/15 04:04:15;;;;;;;9.40;3.28;;;16.10;99.90;;;15.47;100.00;100157.69;3988414;29;20106;-76
2023/07/15 04:06:16;;;;;;;12.50;4.05;;;16.10;99.90;;;15.45;100.00;100154.34;3995154;29;20037;-76
2023/07/15 04:08:17;;;;;;;12.35;3.95;;;16.10;99.90;;;15.45;100.00;100149.88;3992423;29;20022;-76
2023/07/15 04:10:18;;;;;;;15.73;3.38;;;16.00;99.90;;;15.48;100.00;100153.97;3997494;29;20555;-76
2023/07/15 04:12:19;;;;;;;13.93;4.07;;;16.10;99.90;;;15.51;100.00;100142.94;3982026;29;20614;-75
2023/07/15 04:14:20;;;;;;;18.75;3.85;;;16.10;99.90;;;15.54;100.00;100142.53;3994092;29;20067;-76
2023/07/15 04:16:20;;;;;;;12.10;2.80;;;16.10;99.90;;;15.53;100.00;100142.75;3997722;29;20039;-76
2023/07/15 04:18:21;;;;;;;13.95;4.68;;;16.10;99.90;;;15.46;100.00;100138.22;3992068;29;20030;-76
2023/07/15 04:20:22;;;;;;;12.50;3.50;;;16.10;99.90;;;15.46;100.00;100143.53;3979511;29;20095;-75
2023/07/15 04:22:24;;;;;;;11.48;3.42;;;16.10;99.90;;;15.46;100.00;100140.88;3981368;29;20126;-75
2023/07/15 04:24:25;;;;;;;19.20;4.07;;;16.00;99.90;;;15.46;100.00;100140.06;3997865;29;20041;-75
2023/07/15 04:26:27;;;;;;;11.15;3.20;;;16.00;99.90;;;15.40;100.00;100140.88;3994452;29;20506;-76
2023/07/15 04:28:28;;;;;;;18.52;4.30;;;16.00;99.90;;;15.41;100.00;100137.19;3981683;29;20530;-76
2023/07/15 04:30:29;;;;;;;9.85;3.20;;;16.00;99.90;;;15.45;100.00;100143.72;3977833;29;20027;-76
2023/07/15 04:32:30;;;;;;;13.25;3.45;;;16.00;99.90;;;15.46;100.00;100140.06;3997715;29;20502;-76
2023/07/15 04:34:31;;;;;;;10.18;4.65;;;16.00;99.90;;;15.48;100.00;100146.00;3996544;29;20094;-76
2023/07/15 04:36:32;;;;;;;17.77;4.30;;;16.10;99.90;;;15.52;100.00;100149.09;3981380;29;20035;-76
2023/07/15 04:38:32;;;;;;;8.90;2.72;;;16.10;99.90;;;15.52;100.00;100146.44;3981497;29;20026;-76
2023/07/15 04:40:33;;;;;;;10.55;3.03;;;16.10;99.90;;;15.52;100.00;100141.13;3977704;29;20511;-76
2023/07/15 04:42:34;;;;;;;12.00;3.03;;;16.10;99.90;;;15.49;100.00;100137.84;3996813;29;20380;-76
2023/07/15 04:44:35;;;;;;;16.60;4.05;;;16.10;99.90;;;15.52;100.00;100143.78;3994429;29;20101;-76
2023/07/15 04:46:38;;;;;;;14.30;3.53;;;16.10;99.90;;;15.56;100.00;100145.81;3977746;29;20064;-76
2023/07/15 04:48:39;;;;;;;10.38;3.40;;;16.10;99.90;;;15.61;100.00;100147.88;3978041;29;20027;-75
2023/07/15 04:50:40;;;;;;;14.02;3.92;;;16.10;99.90;;;15.68;100.00;100138.88;3981531;29;20043;-76
2023/07/15 04:52:41;;;;;;;18.45;4.03;;;16.20;99.90;;;15.78;100.00;100143.78;3977616;29;20049;-76
2023/07/15 04:54:42;;;;;;;12.05;3.10;;;16.30;99.90;;;15.83;100.00;100146.69;3977540;29;20031;-75
2023/07/15 04:56:44;;;;;;;14.82;4.07;;;16.30;99.90;;;15.89;100.00;100145.81;3997493;29;20479;-76
2023/07/15 04:58:45;;;;;;;18.60;3.83;;;16.40;99.90;;;15.93;100.00;100141.75;3962267;30;20019;-76
2023/07/15 05:00:46;;;;;;;12.32;3.28;;;16.40;99.90;;;15.98;100.00;100142.75;3996125;29;20462;-76
2023/07/15 05:02:49;;;;;;;9.13;2.40;;;16.50;99.90;;;15.99;100.00;100139.09;3981159;29;20567;-75
2023/07/15 05:04:50;;;;;;;9.90;2.67;;;16.50;99.90;;;16.02;100.00;100144.00;3996169;29;20487;-76
2023/07/15 05:06:51;;;;;;;11.18;2.53;;;16.50;99.90;;;16.03;100.00;100145.66;3977235;29;20060;-75
2023/07/15 05:08:51;;;;;;;11.50;2.83;;;16.50;99.90;;;16.13;100.00;100141.75;3997129;29;20026;-76
2023/07/15 05:10:53;;;;;;;9.02;2.15;;;16.60;99.90;;;16.21;100.00;100144.19;3997111;29;20022;-75
2023/07/15 05:12:54;;;;;;;12.10;2.47;;;16.70;99.90;;;16.38;100.00;100146.19;3996156;29;20062;-76
2023/07/15 05:14:55;;;;;;;10.35;2.50;;;16.80;99.90;;;16.52;100.00;100142.47;3997055;29;20026;-76
2023/07/15 05:16:55;;;;;;;14.88;2.95;;;17.00;99.90;;;16.69;100.00;100142.88;3994987;29;20037;-76
2023/07/15 05:18:56;;;;;;;6.95;2.13;;;17.10;99.90;;;16.83;100.00;100140.97;3975092;29;20412;-76
2023/07/15 05:20:57;;;;;;;13.75;2.60;;;17.30;99.90;;;16.99;100.00;100143.97;3996120;29;20022;-76
2023/07/15 05:22:58;;;;;;;13.63;2.88;;;17.40;99.90;;;17.23;100.00;100141.63;3976821;29;20039;-76
2023/07/15 05:24:59;;;;;;;5.97;2.00;;;17.60;99.90;;;17.48;100.00;100143.28;3993065;29;20039;-76
2023/07/15 05:26:59;;;;;;;9.45;2.40;;;17.90;99.90;;;17.75;100.00;100143.13;3977238;29;20057;-76
2023/07/15 05:29:00;;;;;;;15.00;3.67;;;18.10;99.90;;;17.90;100.00;100144.44;4004853;29;20030;-76
2023/07/15 05:31:02;;;;;;;8.55;2.55;;;18.30;99.90;;;17.97;100.00;100152.41;3996964;29;20018;-76
2023/07/15 05:33:03;;;;;;;9.77;3.20;;;18.40;99.90;;;17.94;100.00;100143.00;3992810;29;20040;-76
2023/07/15 05:35:05;;;;;;;9.38;2.35;;;18.40;99.90;;;17.96;100.00;100145.44;3965942;30;20031;-75
2023/07/15 05:37:06;;;;;;;12.90;2.67;;;18.40;99.90;;;17.90;100.00;100156.97;3995433;29;20026;-76
2023/07/15 05:39:07;;;;;;;13.05;2.65;;;18.40;99.90;;;17.85;100.00;100148.81;3995461;29;20422;-76
2023/07/15 05:41:08;;;;;;;7.75;1.92;;;18.40;99.90;;;17.84;100.00;100144.50;3993388;29;20113;-75
2023/07/15 05:43:09;;;;;;;10.65;2.22;;;18.40;99.90;;;17.84;100.00;100148.00;3977901;29;20038;-75
2023/07/15 05:45:11;;;;;;;10.55;2.72;;;18.30;99.90;;;17.87;100.00;100142.22;3992803;29;20042;-76
2023/07/15 05:47:12;;;;;;;9.00;3.00;;;18.40;99.90;;;17.98;100.00;100146.06;3995611;29;20026;-76
2023/07/15 05:49:12;;;;;;;9.27;2.05;;;18.50;99.90;;;18.01;100.00;100149.06;3976475;29;20193;-76
2023/07/15 05:51:13;;;;;;;10.20;2.35;;;18.50;99.90;;;18.09;100.00;100145.31;4003411;29;20034;-75
2023/07/15 05:53:14;;;;;;;11.60;3.03;;;18.60;99.90;;;18.15;100.00;100149.78;3979419;29;20106;-76
2023/07/15 05:55:16;;;;;;;8.93;2.47;;;18.60;99.90;;;18.18;100.00;100154.69;3992715;29;20030;-76
2023/07/15 05:57:17;;;;;;;5.65;1.92;;;18.60;99.90;;;18.20;100.00;100152.59;3995110;29;20045;-76
2023/07/15 05:59:20;;;;;;;8.85;2.00;;;18.70;99.90;;;18.22;100.00;100151.34;3985168;29;20030;-76
2023/07/15 06:01:21;;;;;;;7.38;2.70;;;18.70;99.90;;;18.25;100.00;100158.09;3980350;29;20034;-75
2023/07/15 06:03:22;;;;;;;7.72;1.70;;;18.70;99.90;;;18.26;100.00;100157.06;3992374;29;20026;-75
2023/07/15 06:05:23;;;;;;;7.95;2.85;;;18.80;99.90;;;18.25;100.00;100155.44;3992753;29;20108;-76
2023/07/15 06:07:23;;;;;;;7.88;2.08;;;18.70;99.90;;;18.21;100.00;100155.06;3993378;29;20023;-76
2023/07/15 06:09:24;;;;;;;9.75;2.13;;;18.70;99.90;;;18.21;100.00;100163.09;3996457;29;20031;-76
2023/07/15 06:11:25;;;;;;;9.85;2.20;;;18.70;99.90;;;18.21;100.00;100159.59;3996348;29;20026;-76
2023/07/15 06:13:26;;;;;;;10.77;2.03;;;18.70;99.90;;;18.24;100.00;100159.97;3992465;29;20066;-76
2023/07/15 06:15:27;;;;;;;8.95;2.30;;;18.70;99.90;;;18.35;100.00;100160.28;3976166;29;20042;-76
2023/07/15 06:17:28;;;;;;;5.57;1.98;;;18.70;99.90;;;18.39;100.00;100156.94;3976254;29;20031;-76
2023/07/15 06:19:29;;;;;;;10.07;2.17;;;18.80;99.90;;;18.43;100.00;100158.13;3976081;29;20027;-76
2023/07/15 06:21:30;;;;;;;8.55;1.95;;;18.80;99.90;;;18.55;100.00;100145.69;3995403;29;20045;-76
2023/07/15 06:23:30;;;;;;;7.45;2.08;;;18.90;99.90;;;18.68;100.00;100145.56;3976534;29;20114;-75
2023/07/15 06:25:31;;;;;;;7.38;2.08;;;19.00;99.90;;;18.69;100.00;100147.22;3965007;30;20023;-76
2023/07/15 06:27:32;;;;;;;6.85;1.77;;;19.00;99.90;;;18.67;100.00;100149.28;3995174;29;20042;-76
2023/07/15 06:29:34;;;;;;;10.20;2.70;;;19.10;99.90;;;18.83;100.00;100153.19;3996177;29;20030;-76
2023/07/15 06:31:35;;;;;;;9.38;2.75;;;19.20;99.90;;;19.12;100.00;100147.06;3977512;29;20023;-76
2023/07/15 06:33:36;;;;;;;6.38;1.88;;;19.40;99.90;;;19.25;100.00;100151.44;3961319;30;20031;-76
2023/07/15 06:35:37;;;;;;;12.00;2.55;;;19.50;99.90;;;19.35;100.00;100157.06;3994669;29;20394;-76
2023/07/15 06:37:38;;;;;;;7.97;2.30;;;19.70;99.90;;;19.47;100.00;100155.28;3975885;29;20030;-76
2023/07/15 06:39:39;;;;;;;9.10;2.22;;;19.90;99.90;;;19.48;100.00;100164.91;3979882;29;20037;-76
2023/07/15 06:41:40;;;;;;;10.82;1.70;;;19.90;99.90;;;19.42;100.00;100157.78;3992381;29;20042;-75
2023/07/15 06:43:41;;;;;;;11.45;2.00;;;19.90;99.90;;;19.46;100.00;100147.47;3992338;29;20030;-76
2023/07/15 06:45:42;;;;;;;11.98;2.35;;;20.00;99.90;;;19.50;100.00;100149.47;3976867;29;20034;-76
2023/07/15 06:47:42;;;;;;;10.55;2.28;;;20.00;99.90;;;19.61;100.00;100156.72;3994939;29;20023;-75
2023/07/15 06:49:43;;;;;;;12.07;2.55;;;20.10;99.90;;;19.96;100.00;100170.16;3975692;29;20035;-76
2023/07/15 06:51:44;;;;;;;7.95;1.70;;;20.40;99.90;;;20.12;100.00;100158.75;3995926;29;20030;-75
2023/07/15 06:53:46;;;;;;;8.93;2.28;;;20.50;99.90;;;20.26;100.00;100164.72;3975766;29;20034;-76
2023/07/15 06:55:47;;;;;;;6.28;1.52;;;20.60;99.90;;;20.20;100.00;100170.97;3992096;29;20065;-75
2023/07/15 06:57:48;;;;;;;9.20;2.15;;;20.70;99.90;;;20.19;100.00;100174.72;3977663;29;20027;-76
2023/07/15 06:59:49;;;;;;;7.25;1.77;;;20.70;99.90;;;20.16;100.00;100181.34;3994759;29;20395;-75
2023/07/15 07:01:50;;;;;;;5.22;1.48;;;20.70;99.90;;;20.20;100.00;100182.50;3971300;29;20038;-76
2023/07/15 07:03:51;;;;;;;8.32;1.98;;;20.70;99.90;;;20.06;100.00;100188.31;3990873;29;20026;-75
2023/07/15 07:05:52;;;;;;;5.57;2.17;;;20.60;99.90;;;19.94;100.00;100193.66;3975393;29;20030;-75
2023/07/15 07:07:54;;;;;;;13.27;3.45;;;20.50;99.90;;;20.00;100.00;100200.78;3964445;30;20048;-76
2023/07/15 07:09:55;;;;;;;10.35;1.92;;;20.50;99.90;;;19.98;100.00;100199.38;3996600;29;20038;-76
2023/07/15 07:11:56;;;;;;;5.47;1.60;;;20.50;99.90;;;19.88;100.00;100214.16;3991793;29;20483;-76
2023/07/15 07:13:57;;;;;;;6.53;2.10;;;20.50;99.90;;;19.92;100.00;100227.88;3975693;29;20039;-76
2023/07/15 07:15:59;;;;;;;3.83;1.52;;;20.50;99.90;;;19.54;100.00;100209.50;3995756;29;20490;-76
2023/07/15 07:18:00;;;;;;;5.45;1.45;;;20.40;99.90;;;19.72;100.00;100222.81;3990564;29;20026;-76
2023/07/15 07:20:01;;;;;;;8.85;2.30;;;20.30;99.90;;;19.80;100.00;100219.00;3975928;29;20038;-76
2023/07/15 07:22:02;;;;;;;6.03;1.38;;;20.40;99.90;;;19.84;100.00;100233.56;3975629;29;20099;-76
2023/07/15 07:24:03;;;;;;;4.85;1.38;;;20.30;99.90;;;19.79;100.00;100226.22;3991697;29;20479;-76
2023/07/15 07:26:03;;;;;;;6.78;1.75;;;20.30;99.90;;;19.83;100.00;100224.69;3979180;29;20037;-76
2023/07/15 07:28:04;;;;;;;8.80;1.85;;;20.40;99.90;;;20.03;100.00;100234.31;3972637;29;20032;-75
2023/07/15 07:30:06;;;;;;;6.15;1.40;;;20.50;99.90;;;20.05;100.00;100226.84;3990230;29;20411;-76
2023/07/15 07:32:07;;;;;;;7.57;1.50;;;20.60;99.90;;;19.86;100.00;100226.13;3995708;29;20110;-76
2023/07/15 07:34:08;;;;;;;5.00;1.58;;;20.60;99.90;;;19.98;100.00;100234.97;3995462;29;20402;-76
2023/07/15 07:36:09;;;;;;;6.47;1.80;;;20.60;99.90;;;20.08;100.00;100234.41;3991534;29;20038;-76
2023/07/15 07:38:10;;;;;;;5.50;1.48;;;20.60;99.90;;;20.04;100.00;100227.91;3994909;29;20490;-76
2023/07/15 07:40:11;;;;;;;8.27;1.58;;;20.60;99.90;;;19.97;100.00;100229.88;3991536;29;20101;-75
2023/07/15 07:42:13;;;;;;;7.20;1.60;;;20.50;99.90;;;19.83;100.00;100227.38;3995420;29;20034;-76
2023/07/15 07:44:14;;;;;;;7.32;2.13;;;20.40;99.90;;;19.84;100.00;100220.16;3992291;29;20078;-75
2023/07/15 07:46:15;;;;;;;9.43;2.42;;;20.40;99.90;;;19.93;100.00;100220.66;3978404;29;20030;-76
2023/07/15 07:48:15;;;;;;;8.52;2.08;;;20.50;99.90;;;19.94;100.00;100227.66;3998139;29;20109;-76
2023/07/15 07:50:16;;;;;;;7.90;1.65;;;20.50;99.90;;;19.95;100.00;100223.94;3982088;29;20030;-75
2023/07/15 07:52:17;;;;;;;6.78;2.30;;;20.50;99.90;;;20.00;100.00;100222.19;3967395;30;20034;-76
2023/07/15 07:54:18;;;;;;;5.55;1.80;;;20.60;99.90;;;20.15;100.00;100230.59;3967124;30;20024;-76
2023/07/15 07:56:19;;;;;;;7.93;2.03;;;20.60;99.90;;;20.20;100.00;100228.03;3994493;29;20038;-76
2023/07/15 07:58:20;;;;;;;9.48;2.58;;;20.80;99.90;;;20.29;100.00;100233.91;3997884;29;20037;-76
2023/07/15 08:00:21;;;;;;;10.70;2.65;;;20.80;99.90;;;20.27;100.00;100241.38;3981908;29;20035;-76
2023/07/15 08:02:21;;;;;;;10.13;2.08;;;20.80;99.90;;;20.30;100.00;100247.09;3998435;29;20034;-76
2023/07/15 08:04:23;;;;;;;14.80;3.03;;;20.90;99.90;;;20.30;100.00;100243.59;3993969;29;20403;-75
2023/07/15 08:06:25;;;;;;;10.73;1.80;;;20.90;99.90;;;20.12;100.00;100244.47;3998057;29;20034;-75
2023/07/15 08:08:26;;;;;;;10.07;2.20;;;20.80;99.90;;;20.08;100.00;100247.81;3994302;29;20034;-75
2023/07/15 08:10:27;;;;;;;11.57;2.20;;;20.70;99.90;;;20.08;100.00;100242.44;3998035;29;20098;-75
2023/07/15 08:12:27;;;;;;;8.38;2.28;;;20.70;99.90;;;20.23;100.00;100237.47;3978215;29;20031;-75
2023/07/15 08:14:28;;;;;;;10.23;2.72;;;20.80;99.90;;;20.49;100.00;100245.09;3981885;29;20019;-75
2023/07/15 08:16:37;;;;;;;7.63;2.08;;;20.90;99.90;;;20.70;100.00;100241.84;3978620;29;20117;-75
2023/07/15 08:18:38;;;;;;;8.98;2.42;;;21.10;99.90;;;20.75;100.00;100241.16;3997673;29;20041;-76